createdAt,value
2019-04-26T00:01:02.602Z,12.00
2019-04-26T00:03:41.555Z,11.92
2019-04-26T00:06:10.753Z,11.86
2019-04-26T00:08:39.935Z,11.79
2019-04-26T00:11:16.311Z,11.75
2019-04-26T00:14:02.201Z,11.77
2019-04-26T00:16:44.574Z,11.81
2019-04-26T00:19:13.834Z,11.75
2019-04-26T00:21:42.543Z,11.76
2019-04-26T00:24:11.770Z,11.75
2019-04-26T00:26:40.277Z,11.66
2019-04-26T00:29:08.665Z,11.61
2019-04-26T00:31:37.093Z,11.73
2019-04-26T00:34:05.573Z,11.74
2019-04-26T00:36:33.980Z,11.86
2019-04-26T00:39:02.362Z,11.85
2019-04-26T00:41:30.924Z,11.81
2019-04-26T00:43:59.417Z,11.90
2019-04-26T00:46:31.157Z,11.98
2019-04-26T00:49:02.632Z,12.02
2019-04-26T00:51:31.852Z,12.06
2019-04-26T00:54:00.871Z,12.10
2019-04-26T00:56:29.693Z,12.14
2019-04-26T00:58:58.337Z,12.13
2019-04-26T01:01:28.463Z,12.12
2019-04-26T01:03:56.946Z,11.97
2019-04-26T01:06:26.993Z,11.85
2019-04-26T01:08:55.399Z,11.85
2019-04-26T01:11:23.926Z,11.91
2019-04-26T01:13:52.295Z,11.96
2019-04-26T01:16:20.858Z,11.98
2019-04-26T01:18:50.319Z,12.04
2019-04-26T01:21:22.661Z,12.03
2019-04-26T01:23:53.937Z,12.01
2019-04-26T01:26:28.216Z,11.97
2019-04-26T01:29:05.629Z,11.91
2019-04-26T01:31:39.892Z,11.84
2019-04-26T01:34:08.363Z,11.77
2019-04-26T01:36:42.228Z,11.72
2019-04-26T01:39:12.328Z,11.71
2019-04-26T01:41:45.343Z,11.61
2019-04-26T01:44:31.993Z,11.67
2019-04-26T01:47:00.579Z,11.69
2019-04-26T01:49:29.154Z,11.70
2019-04-26T01:52:11.343Z,11.75
2019-04-26T01:54:42.929Z,11.71
2019-04-26T01:57:14.510Z,11.71
2019-04-26T01:59:46.853Z,11.72
2019-04-26T02:02:32.079Z,11.67
2019-04-26T02:05:13.969Z,11.71
2019-04-26T02:07:42.832Z,11.75
2019-04-26T02:10:16.901Z,11.71
2019-04-26T02:12:48.607Z,11.71
2019-04-26T02:15:20.267Z,11.69
2019-04-26T02:17:50.682Z,11.62
2019-04-26T02:20:41.722Z,11.63
2019-04-26T02:23:30.370Z,11.54
2019-04-26T02:26:00.490Z,11.57
2019-04-26T02:28:30.429Z,11.53
2019-04-26T02:30:59.200Z,11.43
2019-04-26T02:33:29.688Z,11.48
2019-04-26T02:35:58.101Z,11.47
2019-04-26T02:38:27.918Z,11.42
2019-04-26T02:40:59.081Z,11.36
2019-04-26T02:43:30.238Z,11.40
2019-04-26T02:46:10.100Z,11.37
2019-04-26T02:49:01.240Z,11.33
2019-04-26T02:51:36.438Z,11.37
2019-04-26T02:54:29.708Z,11.42
2019-04-26T02:57:00.289Z,11.41
2019-04-26T02:59:33.781Z,11.41
2019-04-26T03:02:06.906Z,11.42
2019-04-26T03:04:39.467Z,11.39
2019-04-26T03:07:11.085Z,11.33
2019-04-26T03:09:43.219Z,11.30
2019-04-26T03:12:18.023Z,11.28
2019-04-26T03:14:53.718Z,11.25
2019-04-26T03:17:43.124Z,11.35
2019-04-26T03:20:21.337Z,11.33
2019-04-26T03:22:52.800Z,11.35
2019-04-26T03:25:26.950Z,11.29
2019-04-26T03:28:13.352Z,11.26
2019-04-26T03:30:52.672Z,11.21
2019-04-26T03:33:42.046Z,11.18
2019-04-26T03:36:19.867Z,11.11
2019-04-26T03:38:58.540Z,11.09
2019-04-26T03:41:42.535Z,11.14
2019-04-26T03:44:19.889Z,11.13
2019-04-26T03:46:54.345Z,11.07
2019-04-26T03:49:44.190Z,11.07
2019-04-26T03:52:20.686Z,11.07
2019-04-26T03:54:58.239Z,11.01
2019-04-26T03:57:36.231Z,11.02
2019-04-26T04:00:11.511Z,11.05
2019-04-26T04:02:47.227Z,11.04
2019-04-26T04:05:20.342Z,11.09
2019-04-26T04:07:51.601Z,11.10
2019-04-26T04:10:30.294Z,11.10
2019-04-26T04:13:23.045Z,11.11
2019-04-26T04:15:53.348Z,11.07
2019-04-26T04:18:32.170Z,11.08
2019-04-26T04:21:22.893Z,11.15
2019-04-26T04:23:57.199Z,11.21
2019-04-26T04:26:34.479Z,11.19
2019-04-26T04:29:42.602Z,11.25
2019-04-26T04:32:23.061Z,11.30
2019-04-26T04:34:54.518Z,11.33
2019-04-26T04:37:25.995Z,11.34
2019-04-26T04:40:18.864Z,11.34
2019-04-26T04:43:04.392Z,11.33
2019-04-26T04:46:12.071Z,11.34
2019-04-26T04:48:59.635Z,11.33
2019-04-26T04:51:46.855Z,11.31
2019-04-26T04:54:24.893Z,11.32
2019-04-26T04:57:02.313Z,11.31
2019-04-26T04:59:52.369Z,11.23
2019-04-26T05:02:43.825Z,11.21
2019-04-26T05:05:51.085Z,11.16
2019-04-26T05:08:41.007Z,11.17
2019-04-26T05:11:21.021Z,11.12
2019-04-26T05:13:55.292Z,11.20
2019-04-26T05:17:00.037Z,11.23
2019-04-26T05:19:54.868Z,11.25
2019-04-26T05:22:35.196Z,11.22
2019-04-26T05:25:40.329Z,11.20
2019-04-26T05:28:13.635Z,11.15
2019-04-26T05:31:07.406Z,11.18
2019-04-26T05:33:44.497Z,11.20
2019-04-26T05:36:30.957Z,11.19
2019-04-26T05:39:02.407Z,11.20
2019-04-26T05:41:55.686Z,11.12
2019-04-26T05:44:31.518Z,11.20
2019-04-26T05:47:25.407Z,11.26
2019-04-26T05:50:25.398Z,11.25
2019-04-26T05:53:31.202Z,11.26
2019-04-26T05:56:34.821Z,11.29
2019-04-26T05:59:24.187Z,11.35
2019-04-26T06:02:35.143Z,11.33
2019-04-26T06:05:22.274Z,11.36
2019-04-26T06:08:31.771Z,11.35
2019-04-26T06:11:07.510Z,11.31
2019-04-26T06:14:02.017Z,11.33
2019-04-26T06:16:43.338Z,11.35
2019-04-26T06:19:24.993Z,11.36
2019-04-26T06:22:08.221Z,11.37
2019-04-26T06:24:56.511Z,11.42
2019-04-26T06:27:41.704Z,11.39
2019-04-26T06:30:16.477Z,11.38
2019-04-26T06:33:21.048Z,11.37
2019-04-26T06:35:54.718Z,11.35
2019-04-26T06:38:43.989Z,11.38
2019-04-26T06:41:22.332Z,11.38
2019-04-26T06:44:04.764Z,11.39
2019-04-26T06:47:05.127Z,11.42
2019-04-26T06:50:03.696Z,11.46
2019-04-26T06:52:35.098Z,11.41
2019-04-26T06:55:08.202Z,11.42
2019-04-26T06:58:02.994Z,11.38
2019-04-26T07:01:05.892Z,11.30
2019-04-26T07:03:49.196Z,11.13
2019-04-26T07:06:20.670Z,11.07
2019-04-26T07:09:11.678Z,11.08
2019-04-26T07:12:31.726Z,11.12
2019-04-26T07:15:28.354Z,11.05
2019-04-26T07:18:04.420Z,10.94
2019-04-26T07:20:40.614Z,10.89
2019-04-26T07:23:37.928Z,10.91
2019-04-26T07:26:34.960Z,10.91
2019-04-26T07:29:14.024Z,10.87
2019-04-26T07:31:54.303Z,10.85
2019-04-26T07:34:48.536Z,10.91
2019-04-26T07:37:32.185Z,10.81
2019-04-26T07:40:11.522Z,10.92
2019-04-26T07:43:08.895Z,10.97
2019-04-26T07:45:53.473Z,10.97
2019-04-26T07:48:41.335Z,11.06
2019-04-26T07:51:18.811Z,11.05
2019-04-26T07:54:09.745Z,11.09
2019-04-26T07:56:56.099Z,11.00
2019-04-26T07:59:59.534Z,10.99
2019-04-26T08:02:47.047Z,11.04
2019-04-26T08:05:28.867Z,11.00
2019-04-26T08:08:00.585Z,11.02
2019-04-26T08:10:32.401Z,11.11
2019-04-26T08:13:10.108Z,11.20
2019-04-26T08:15:55.051Z,11.24
2019-04-26T08:18:28.151Z,11.30
2019-04-26T08:21:13.617Z,11.34
2019-04-26T08:23:44.063Z,11.30
2019-04-26T08:26:15.537Z,11.42
2019-04-26T08:28:46.196Z,11.49
2019-04-26T08:31:21.230Z,11.45
2019-04-26T08:33:55.110Z,11.49
2019-04-26T08:36:27.040Z,11.49
2019-04-26T08:38:58.403Z,11.54
2019-04-26T08:41:27.423Z,11.54
2019-04-26T08:44:17.224Z,11.52
2019-04-26T08:47:05.999Z,11.47
2019-04-26T08:49:52.513Z,11.40
2019-04-26T08:52:23.321Z,11.42
2019-04-26T08:54:55.508Z,11.42
2019-04-26T08:57:26.911Z,11.43
2019-04-26T08:59:58.295Z,11.45
2019-04-26T09:02:31.207Z,11.55
2019-04-26T09:05:04.360Z,11.58
2019-04-26T09:07:36.437Z,11.63
2019-04-26T09:10:11.229Z,11.58
2019-04-26T09:12:41.021Z,11.63
2019-04-26T09:15:13.966Z,11.51
2019-04-26T09:17:42.453Z,11.49
2019-04-26T09:20:11.192Z,11.50
2019-04-26T09:22:41.258Z,11.49
2019-04-26T09:25:17.793Z,11.60
2019-04-26T09:27:50.629Z,11.72
2019-04-26T09:30:33.370Z,11.82
2019-04-26T09:32:53.135Z,11.78
2019-04-26T09:35:21.520Z,11.76
2019-04-26T09:37:49.931Z,11.64
2019-04-26T09:40:21.550Z,11.67
2019-04-26T09:42:50.350Z,11.63
2019-04-26T09:45:32.745Z,11.70
2019-04-26T09:48:02.798Z,11.80
2019-04-26T09:50:32.912Z,11.70
2019-04-26T09:53:01.327Z,11.75
2019-04-26T09:55:35.486Z,11.79
2019-04-26T09:57:59.937Z,11.81
2019-04-26T10:00:30.281Z,11.81
2019-04-26T10:02:58.843Z,11.87
2019-04-26T10:05:27.307Z,11.88
2019-04-26T10:07:55.772Z,11.98
2019-04-26T10:10:26.177Z,12.11
2019-04-26T10:13:14.922Z,12.10
2019-04-26T10:15:58.101Z,12.13
2019-04-26T10:18:26.294Z,12.22
2019-04-26T10:20:54.698Z,12.34
2019-04-26T10:23:23.167Z,12.38
2019-04-26T10:25:53.443Z,12.31
2019-04-26T10:28:21.932Z,12.35
2019-04-26T10:30:50.737Z,12.25
2019-04-26T10:33:19.225Z,12.31
2019-04-26T10:35:47.657Z,12.30
2019-04-26T10:38:19.435Z,12.32
2019-04-26T10:40:46.284Z,12.43
2019-04-26T10:43:14.785Z,12.35
2019-04-26T10:45:45.915Z,12.38
2019-04-26T10:48:13.974Z,12.42
2019-04-26T10:50:43.804Z,12.41
2019-04-26T10:53:16.565Z,12.40
2019-04-26T10:55:50.266Z,12.34
2019-04-26T10:58:24.939Z,12.50
2019-04-26T11:01:01.034Z,12.54
2019-04-26T11:03:29.501Z,12.63
2019-04-26T11:05:57.970Z,12.69
2019-04-26T11:08:26.680Z,12.72
2019-04-26T11:10:55.186Z,12.81
2019-04-26T11:13:23.585Z,12.92
2019-04-26T11:15:52.080Z,13.13
2019-04-26T11:18:27.363Z,13.23
2019-04-26T11:20:50.735Z,13.35
2019-04-26T11:23:19.140Z,13.20
2019-04-26T11:25:47.665Z,13.25
2019-04-26T11:28:17.205Z,13.28
2019-04-26T11:30:47.977Z,13.07
2019-04-26T11:33:16.448Z,13.04
2019-04-26T11:35:44.936Z,13.14
2019-04-26T11:38:13.348Z,13.27
2019-04-26T11:40:44.401Z,13.43
2019-04-26T11:43:11.969Z,13.49
2019-04-26T11:45:40.385Z,13.35
2019-04-26T11:48:08.809Z,13.49
2019-04-26T11:50:37.284Z,13.65
2019-04-26T11:53:06.219Z,13.68
2019-04-26T11:55:35.918Z,13.63
2019-04-26T11:58:04.377Z,13.65
2019-04-26T12:00:43.360Z,13.72
2019-04-26T12:03:11.849Z,13.61
2019-04-26T12:05:57.718Z,13.55
2019-04-26T12:08:27.757Z,13.65
2019-04-26T12:10:56.256Z,13.65
2019-04-26T12:13:25.205Z,14.08
2019-04-26T12:15:54.966Z,14.26
2019-04-26T12:18:24.031Z,14.60
2019-04-26T12:20:52.369Z,14.84
2019-04-26T12:23:21.822Z,14.98
2019-04-26T12:25:50.279Z,15.25
2019-04-26T12:28:18.692Z,15.04
2019-04-26T12:30:47.102Z,14.71
2019-04-26T12:33:15.521Z,14.62
2019-04-26T12:35:43.991Z,14.67
2019-04-26T12:38:12.396Z,14.86
2019-04-26T12:40:42.335Z,14.48
2019-04-26T12:43:10.975Z,14.48
2019-04-26T12:45:47.348Z,14.78
2019-04-26T12:48:25.011Z,15.11
2019-04-26T12:50:53.474Z,14.92
2019-04-26T12:53:21.885Z,14.75
2019-04-26T12:55:53.650Z,15.10
2019-04-26T12:58:20.452Z,15.14
2019-04-26T13:00:54.047Z,14.88
2019-04-26T13:03:20.382Z,15.04
2019-04-26T13:05:57.472Z,14.90
2019-04-26T13:08:19.472Z,14.72
2019-04-26T13:11:08.038Z,14.66
2019-04-26T13:13:55.208Z,14.89
2019-04-26T13:16:31.113Z,14.96
2019-04-26T13:18:59.520Z,15.18
2019-04-26T13:21:27.932Z,14.95
2019-04-26T13:23:56.338Z,15.23
2019-04-26T13:26:24.789Z,15.34
2019-04-26T13:28:57.021Z,15.28
2019-04-26T13:31:23.311Z,15.10
2019-04-26T13:33:51.720Z,15.02
2019-04-26T13:36:20.149Z,15.00
2019-04-26T13:38:48.573Z,15.17
2019-04-26T13:41:17.079Z,15.63
2019-04-26T13:43:45.474Z,15.69
2019-04-26T13:46:21.815Z,15.58
2019-04-26T13:48:51.926Z,15.19
2019-04-26T13:51:30.903Z,14.94
2019-04-26T13:53:59.369Z,14.73
2019-04-26T13:56:27.879Z,14.68
2019-04-26T13:58:58.203Z,14.52
2019-04-26T14:01:26.605Z,14.55
2019-04-26T14:03:55.084Z,14.59
2019-04-26T14:06:23.567Z,14.62
2019-04-26T14:08:53.931Z,14.63
2019-04-26T14:11:28.149Z,14.70
2019-04-26T14:13:55.529Z,14.69
2019-04-26T14:16:22.827Z,15.01
2019-04-26T14:18:51.272Z,15.16
2019-04-26T14:21:19.679Z,15.08
2019-04-26T14:23:58.679Z,15.03
2019-04-26T14:26:28.789Z,15.08
2019-04-26T14:28:58.204Z,15.22
2019-04-26T14:31:27.515Z,15.46
2019-04-26T14:33:55.987Z,15.65
2019-04-26T14:36:26.785Z,16.13
2019-04-26T14:39:05.354Z,16.11
2019-04-26T14:41:24.871Z,16.39
2019-04-26T14:43:56.727Z,16.51
2019-04-26T14:46:23.630Z,16.27
2019-04-26T14:49:02.765Z,16.04
2019-04-26T14:51:27.215Z,15.91
2019-04-26T14:53:55.651Z,15.84
2019-04-26T14:56:24.661Z,15.60
2019-04-26T14:58:54.274Z,15.64
2019-04-26T15:01:42.147Z,15.51
2019-04-26T15:04:29.203Z,15.38
2019-04-26T15:06:59.701Z,15.40
2019-04-26T15:09:33.281Z,15.43
2019-04-26T15:12:01.241Z,15.61
2019-04-26T15:14:28.559Z,15.60
2019-04-26T15:16:57.026Z,15.56
2019-04-26T15:19:25.509Z,15.48
2019-04-26T15:21:53.891Z,15.67
2019-04-26T15:24:22.711Z,15.81
2019-04-26T15:26:51.214Z,15.83
2019-04-26T15:29:21.269Z,15.80
2019-04-26T15:31:53.747Z,15.86
2019-04-26T15:34:23.633Z,16.00
2019-04-26T15:36:50.240Z,16.03
2019-04-26T15:39:23.093Z,16.17
2019-04-26T15:42:04.164Z,16.23
2019-04-26T15:44:36.877Z,16.05
2019-04-26T15:47:13.363Z,16.05
2019-04-26T15:49:46.540Z,16.01
2019-04-26T15:52:15.098Z,15.99
2019-04-26T15:54:43.517Z,16.15
2019-04-26T15:57:12.418Z,16.16
2019-04-26T15:59:42.901Z,15.84
2019-04-26T16:02:12.443Z,15.73
2019-04-26T16:04:42.428Z,15.72
2019-04-26T16:07:16.723Z,15.80
2019-04-26T16:09:43.037Z,16.06
2019-04-26T16:12:13.440Z,16.20
2019-04-26T16:14:42.282Z,16.09
2019-04-26T16:17:12.351Z,16.04
2019-04-26T16:19:40.926Z,15.97
2019-04-26T16:22:09.339Z,15.93
2019-04-26T16:24:37.750Z,16.11
2019-04-26T16:27:06.237Z,16.16
2019-04-26T16:29:36.325Z,16.28
2019-04-26T16:32:09.491Z,16.29
2019-04-26T16:34:47.561Z,16.27
2019-04-26T16:37:16.518Z,16.23
2019-04-26T16:39:46.041Z,16.26
2019-04-26T16:42:13.948Z,16.22
2019-04-26T16:44:45.035Z,16.17
2019-04-26T16:47:13.302Z,16.12
2019-04-26T16:49:44.166Z,16.12
2019-04-26T16:52:13.978Z,16.08
2019-04-26T16:54:42.504Z,16.06
2019-04-26T16:57:12.317Z,16.07
2019-04-26T16:59:47.422Z,16.05
2019-04-26T17:02:13.386Z,16.03
2019-04-26T17:04:43.405Z,15.97
2019-04-26T17:07:13.397Z,15.88
2019-04-26T17:09:55.860Z,15.86
2019-04-26T17:12:14.891Z,15.94
2019-04-26T17:14:47.784Z,16.05
2019-04-26T17:17:14.057Z,16.11
2019-04-26T17:19:43.266Z,16.06
2019-04-26T17:22:42.550Z,15.98
2019-04-26T17:25:16.907Z,15.84
2019-04-26T17:27:47.191Z,15.69
2019-04-26T17:30:17.520Z,15.57
2019-04-26T17:32:47.581Z,15.53
2019-04-26T17:35:16.135Z,15.43
2019-04-26T17:37:44.646Z,15.35
2019-04-26T17:40:13.175Z,15.34
2019-04-26T17:42:41.586Z,15.40
2019-04-26T17:45:10.887Z,15.37
2019-04-26T17:47:41.834Z,15.31
2019-04-26T17:50:11.006Z,15.29
2019-04-26T17:52:40.890Z,15.20
2019-04-26T17:55:11.821Z,15.18
2019-04-26T17:57:43.523Z,15.20
2019-04-26T18:00:15.383Z,15.21
2019-04-26T18:02:47.811Z,15.22
2019-04-26T18:05:12.996Z,15.19
2019-04-26T18:07:50.231Z,15.16
2019-04-26T18:10:11.984Z,15.13
2019-04-26T18:12:41.379Z,15.11
2019-04-26T18:15:12.529Z,15.11
2019-04-26T18:17:41.952Z,15.07
2019-04-26T18:20:23.442Z,15.04
2019-04-26T18:23:03.503Z,14.99
2019-04-26T18:25:32.644Z,14.91
2019-04-26T18:28:01.041Z,14.85
2019-04-26T18:30:29.541Z,14.81
2019-04-26T18:32:58.023Z,14.75
2019-04-26T18:35:26.494Z,14.73
2019-04-26T18:37:54.956Z,14.70
2019-04-26T18:40:23.358Z,14.68
2019-04-26T18:42:53.099Z,14.66
2019-04-26T18:45:28.739Z,14.63
2019-04-26T18:47:56.318Z,14.54
2019-04-26T18:50:23.748Z,14.39
2019-04-26T18:52:56.531Z,14.41
2019-04-26T18:55:29.249Z,14.42
2019-04-26T18:58:01.496Z,14.34
2019-04-26T19:00:29.059Z,14.26
2019-04-26T19:02:59.940Z,14.16
2019-04-26T19:05:30.073Z,14.15
2019-04-26T19:07:59.714Z,14.15
2019-04-26T19:10:29.317Z,14.12
2019-04-26T19:13:00.037Z,14.09
2019-04-26T19:15:41.766Z,14.03
2019-04-26T19:18:14.174Z,14.00
2019-04-26T19:21:03.080Z,13.85
2019-04-26T19:23:32.102Z,13.67
2019-04-26T19:26:01.807Z,13.65
2019-04-26T19:28:30.323Z,13.64
2019-04-26T19:30:58.754Z,13.47
2019-04-26T19:33:27.148Z,13.25
2019-04-26T19:35:55.568Z,12.93
2019-04-26T19:38:23.966Z,13.01
2019-04-26T19:40:52.394Z,13.04
2019-04-26T19:43:30.400Z,13.12
2019-04-26T19:45:58.321Z,13.14
2019-04-26T19:48:31.500Z,13.05
2019-04-26T19:51:19.042Z,12.85
2019-04-26T19:53:53.046Z,12.69
2019-04-26T19:56:24.605Z,12.67
2019-04-26T19:58:57.400Z,12.65
2019-04-26T20:01:24.827Z,12.56
2019-04-26T20:03:55.318Z,12.56
2019-04-26T20:06:22.940Z,12.51
2019-04-26T20:08:51.957Z,12.41
2019-04-26T20:11:20.661Z,12.29
2019-04-26T20:13:51.767Z,12.25
2019-04-26T20:16:19.179Z,12.19
2019-04-26T20:18:47.610Z,12.11
2019-04-26T20:21:16.098Z,12.08
2019-04-26T20:23:47.358Z,12.15
2019-04-26T20:26:14.746Z,12.06
2019-04-26T20:28:43.151Z,11.89
2019-04-26T20:31:19.423Z,11.83
2019-04-26T20:33:47.959Z,11.74
2019-04-26T20:36:16.395Z,11.71
2019-04-26T20:38:47.405Z,11.60
2019-04-26T20:41:15.245Z,11.48
2019-04-26T20:43:47.000Z,11.38
2019-04-26T20:46:15.467Z,11.44
2019-04-26T20:48:44.511Z,11.42
2019-04-26T20:51:12.936Z,11.30
2019-04-26T20:53:43.706Z,11.35
2019-04-26T20:56:16.699Z,11.47
2019-04-26T20:58:43.132Z,11.41
2019-04-26T21:01:14.124Z,11.36
2019-04-26T21:03:46.032Z,11.21
2019-04-26T21:06:12.869Z,11.12
2019-04-26T21:08:42.341Z,11.13
2019-04-26T21:11:13.469Z,11.00
2019-04-26T21:13:41.596Z,11.10
2019-04-26T21:16:13.240Z,11.11
2019-04-26T21:18:43.568Z,11.20
2019-04-26T21:21:11.884Z,11.15
2019-04-26T21:23:42.271Z,11.10
2019-04-26T21:26:16.315Z,11.14
2019-04-26T21:28:44.696Z,11.16
2019-04-26T21:31:20.810Z,11.13
2019-04-26T21:33:50.845Z,11.13
2019-04-26T21:36:27.001Z,10.99
2019-04-26T21:39:13.791Z,11.02
2019-04-26T21:41:46.759Z,10.95
2019-04-26T21:44:15.808Z,10.29
2019-04-26T21:46:44.424Z,10.48
2019-04-26T21:49:17.301Z,10.66
2019-04-26T21:51:44.642Z,10.80
2019-04-26T21:54:14.445Z,10.96
2019-04-26T21:56:48.588Z,11.17
2019-04-26T21:59:13.880Z,11.25
2019-04-26T22:01:43.484Z,11.37
2019-04-26T22:04:13.281Z,11.44
2019-04-26T22:06:41.919Z,11.51
2019-04-26T22:09:36.617Z,11.56
2019-04-26T22:12:03.686Z,11.55
2019-04-26T22:14:36.342Z,11.53
2019-04-26T22:17:24.346Z,11.52
2019-04-26T22:20:15.641Z,11.51
2019-04-26T22:22:58.816Z,11.53
2019-04-26T22:25:28.969Z,11.55
2019-04-26T22:28:00.252Z,11.54
2019-04-26T22:30:38.720Z,11.50
2019-04-26T22:33:07.183Z,11.56
2019-04-26T22:35:35.787Z,11.60
2019-04-26T22:38:04.267Z,11.62
2019-04-26T22:40:33.540Z,11.61
2019-04-26T22:43:10.808Z,11.62
2019-04-26T22:45:45.496Z,11.64
2019-04-26T22:48:23.343Z,11.66
2019-04-26T22:50:53.692Z,11.67
2019-04-26T22:53:21.542Z,11.66
2019-04-26T22:55:49.874Z,11.69
2019-04-26T22:58:20.573Z,11.70
2019-04-26T23:00:48.674Z,11.71
2019-04-26T23:03:17.220Z,11.64
2019-04-26T23:05:45.638Z,11.66
2019-04-26T23:08:14.228Z,11.64
2019-04-26T23:10:44.349Z,11.64
2019-04-26T23:13:20.303Z,11.58
2019-04-26T23:15:52.852Z,11.56
2019-04-26T23:18:25.987Z,11.59
2019-04-26T23:20:58.806Z,11.58
2019-04-26T23:23:27.527Z,11.64
2019-04-26T23:25:55.952Z,11.66
2019-04-26T23:28:27.630Z,11.67
2019-04-26T23:30:55.660Z,11.59
2019-04-26T23:33:24.072Z,11.61
2019-04-26T23:35:53.011Z,11.53
2019-04-26T23:38:23.367Z,11.54
2019-04-26T23:40:51.753Z,11.51
2019-04-26T23:43:22.512Z,11.48
2019-04-26T23:45:50.360Z,11.48
2019-04-26T23:48:18.910Z,11.47
2019-04-26T23:50:47.262Z,11.38
2019-04-26T23:53:15.671Z,11.32
2019-04-26T23:55:45.344Z,11.28
2019-04-26T23:58:14.015Z,11.26
